Needles, California
Current Conditions -  °F | °C
As of 10:56 PM on Friday 19 Dec 2014 (Local Time) from KEED Reporting Station
Clear Clear  
Wind Chill: 49°   Ceiling: Unl
Heat Index: 49°   Visibility: 10mi
Dew Point: 41°   Wind: 3mph
Humidity: 74%   Direction: 270°W
Pressure: 30.17"   Gusts: NA
Location:  34.84°N, 114.6°W
Report Text: KEED 200656Z AUTO 27003KT 10SM CLR 09/05 A3017 RMK AO2 SLP208 T00940050
Loading
Personal Weather Stations






























Interactive Weather Map New forecast layout! Learn more

10-Day Weather Forecast

Advertisements
Track Severe Weather on mobile